Time;durP1;ratioP1;P1;durP2;ratioP2;P2;SDS_P1;SDS_P2;PMS_P1;PMS_P2;Temp;Humidity;BMP_temperature;BMP_pressure;BME280_temperature;BME280_humidity;BME280_pressure;Samples;Min_cycle;Max_cycle;Signal;HPM_P1;HPM_P2
2023/10/10 00:01:22;;;;;;;;;;;;;;;;;;6325967;27;19982;-89
2023/10/10 00:04:23;;;;;;;;;;;;;;;;;;6350119;28;19920;-88
2023/10/10 00:07:27;;;;;;;;;;;;;;;;;;6331249;28;19908;-88
2023/10/10 00:10:27;;;;;;;;;;;;;;;;;;6327752;28;20289;-88
2023/10/10 00:13:29;;;;;;;;;;;;;;;;;;6319207;28;19919;-88
2023/10/10 00:16:40;;;;;;;;;;;;;;;;;;6354207;28;19904;-88
2023/10/10 00:19:45;;;;;;;;;;;;;;;;;;6365146;28;20004;-88
2023/10/10 00:22:47;;;;;;;;;;;;;;;;;;6351950;28;19908;-88
2023/10/10 00:25:52;;;;;;;;;;;;;;;;;;6345424;27;19895;-88
2023/10/10 00:28:56;;;;;;;;;;;;;;;;;;6364600;27;19912;-88
2023/10/10 00:32:05;;;;;;;;;;;;;;;;;;6329639;28;19943;-89
2023/10/10 00:35:06;;;;;;;;;;;;;;;;;;6326318;28;19922;-89
2023/10/10 00:38:06;;;;;;;;;;;;;;;;;;6343958;28;19916;-88
2023/10/10 00:41:10;;;;;;;;;;;;;;;;;;6337751;28;19959;-87
2023/10/10 00:44:12;;;;;;;;;;;;;;;;;;6313700;28;19944;-88
2023/10/10 00:47:13;;;;;;;;;;;;;;;;;;6330917;28;20286;-88
2023/10/10 00:50:18;;;;;;;;;;;;;;;;;;6315681;28;20015;-87
2023/10/10 00:53:21;;;;;;;;;;;;;;;;;;6337149;28;19916;-89
2023/10/10 00:56:22;;;;;;;;;;;;;;;;;;6332142;28;20010;-88
2023/10/10 00:59:28;;;;;;;;;;;;;;;;;;6329582;28;19949;-88
2023/10/10 01:02:29;;;;;;;;;;;;;;;;;;6331317;28;19908;-88
2023/10/10 01:05:50;;;;;;;;;;;;;;;;;;6323984;28;19954;-88
2023/10/10 01:08:50;;;;;;;;;;;;;;;;;;6332449;28;19911;-88
2023/10/10 01:11:53;;;;;;;;;;;;;;;;;;6336972;28;19919;-88
2023/10/10 01:14:57;;;;;;;;;;;;;;;;;;6320715;28;20014;-88
2023/10/10 01:17:57;;;;;;;;;;;;;;;;;;6325465;28;20007;-88
2023/10/10 01:21:02;;;;;;;;;;;;;;;;;;6322679;28;19912;-88
2023/10/10 01:24:08;;;;;;;;;;;;;;;;;;6328836;28;20309;-89
2023/10/10 01:27:21;;;;;;;;;;;;;;;;;;6323821;28;19918;-88
2023/10/10 01:30:43;;;;;;;;;;;;;;;;;;6340821;28;19912;-88
2023/10/10 01:33:47;;;;;;;;;;;;;;;;;;6315017;28;19916;-89
2023/10/10 01:36:50;;;;;;;;;;;;;;;;;;6338527;28;19919;-88
2023/10/10 01:39:51;;;;;;;;;;;;;;;;;;6334926;28;19984;-88
2023/10/10 01:42:53;;;;;;;;;;;;;;;;;;6322087;28;20370;-88
2023/10/10 01:46:09;;;;;;;;;;;;;;;;;;6321997;28;20366;-88
2023/10/10 01:49:13;;;;;;;;;;;;;;;;;;6320367;28;20290;-88
2023/10/10 01:52:17;;;;;;;;;;;;;;;;;;6336291;28;20281;-89
2023/10/10 01:55:17;;;;;;;;;;;;;;;;;;6327496;28;20031;-88
2023/10/10 01:58:20;;;;;;;;;;;;;;;;;;6255209;28;1885481;-88
2023/10/10 02:01:24;;;;;;;;;;;;;;;;;;6339421;27;19919;-89
2023/10/10 02:04:34;;;;;;;;;;;;;;;;;;6310558;28;19918;-89
2023/10/10 02:07:35;;;;;;;;;;;;;;;;;;6325184;28;19912;-89
2023/10/10 02:10:36;;;;;;;;;;;;;;;;;;6313836;28;19938;-90
2023/10/10 02:13:39;;;;;;;;;;;;;;;;;;6336391;28;19916;-89
2023/10/10 02:16:40;;;;;;;;;;;;;;;;;;6324730;28;19990;-82
2023/10/10 02:19:41;;;;;;;;;;;;;;;;;;6325078;28;20488;-82
2023/10/10 02:22:48;;;;;;;;;;;;;;;;;;6319052;28;19935;-83
2023/10/10 02:25:48;;;;;;;;;;;;;;;;;;6328117;28;19941;-83
2023/10/10 02:28:49;;;;;;;;;;;;;;;;;;6331501;28;19912;-82
2023/10/10 02:31:55;;;;;;;;;;;;;;;;;;6320629;28;19923;-82
2023/10/10 02:35:13;;;;;;;;;;;;;;;;;;6318939;28;19916;-82
2023/10/10 02:38:13;;;;;;;;;;;;;;;;;;6339122;28;19908;-83
2023/10/10 02:47:36;;;;;;;;;;;;;;;;;;6333489;28;20293;-89
2023/10/10 02:50:40;;;;;;;;;;;;;;;;;;6311178;28;19912;-89
2023/10/10 02:53:46;;;;;;;;;;;;;;;;;;6331754;28;19920;-89
2023/10/10 02:56:46;;;;;;;;;;;;;;;;;;6322881;28;19994;-89
2023/10/10 02:59:50;;;;;;;;;;;;;;;;;;6306701;28;20413;-89
2023/10/10 03:02:53;;;;;;;;;;;;;;;;;;6308434;28;19919;-89
2023/10/10 03:06:06;;;;;;;;;;;;;;;;;;6326577;28;20006;-89
2023/10/10 03:09:13;;;;;;;;;;;;;;;;;;6323012;28;19912;-89
2023/10/10 03:12:17;;;;;;;;;;;;;;;;;;6308383;28;19923;-89
2023/10/10 03:18:28;;;;;;;;;;;;;;;;;;6330049;28;19926;-89
2023/10/10 03:25:03;;;;;;;;;;;;;;;;;;6338712;28;19951;-89
2023/10/10 03:28:17;;;;;;;;;;;;;;;;;;6326824;28;19922;-88
2023/10/10 03:34:32;;;;;;;;;;;;;;;;;;6319426;28;19919;-88
2023/10/10 03:37:53;;;;;;;;;;;;;;;;;;6313023;28;20089;-88
2023/10/10 03:41:26;;;;;;;;;;;;;;;;;;6325242;28;19951;-88
2023/10/10 05:24:26;;;;;;;;;;;;;;;;;;6344562;28;19912;-89
2023/10/10 05:27:29;;;;;;;;;;;;;;;;;;6327938;28;20251;-88
2023/10/10 05:30:45;;;;;;;;;;;;;;;;;;6319932;28;19912;-89
2023/10/10 05:33:47;;;;;;;;;;;;;;;;;;6312678;28;19920;-88
2023/10/10 05:36:48;;;;;;;;;;;;;;;;;;6340275;28;20282;-89
2023/10/10 05:39:49;;;;;;;;;;;;;;;;;;6330840;28;19919;-89
2023/10/10 05:42:49;;;;;;;;;;;;;;;;;;6325675;28;20334;-89
2023/10/10 05:45:50;;;;;;;;;;;;;;;;;;6325635;28;20392;-89
2023/10/10 05:48:50;;;;;;;;;;;;;;;;;;6323698;28;20344;-89
2023/10/10 05:51:51;;;;;;;;;;;;;;;;;;6308077;28;20003;-89
2023/10/10 05:54:51;;;;;;;;;;;;;;;;;;6338359;28;20006;-89
2023/10/10 05:57:52;;;;;;;;;;;;;;;;;;6331886;28;20401;-89
2023/10/10 06:00:53;;;;;;;;;;;;;;;;;;6327887;28;19939;-89
2023/10/10 06:03:56;;;;;;;;;;;;;;;;;;6331116;28;20401;-89
2023/10/10 06:06:56;;;;;;;;;;;;;;;;;;6342760;28;19922;-90
2023/10/10 06:09:57;;;;;;;;;;;;;;;;;;6335179;28;19912;-89
2023/10/10 06:12:58;;;;;;;;;;;;;;;;;;6313438;28;19954;-90
2023/10/10 06:15:58;;;;;;;;;;;;;;;;;;6323238;28;19911;-89
2023/10/10 06:19:00;;;;;;;;;;;;;;;;;;6332797;28;20113;-90
2023/10/10 06:22:02;;;;;;;;;;;;;;;;;;6324581;28;20439;-88
2023/10/10 06:25:03;;;;;;;;;;;;;;;;;;6323000;28;19919;-89
2023/10/10 06:28:22;;;;;;;;;;;;;;;;;;6321530;27;19960;-89
2023/10/10 06:31:31;;;;;;;;;;;;;;;;;;6329383;28;19918;-89
2023/10/10 06:34:34;;;;;;;;;;;;;;;;;;6329478;28;19912;-90
2023/10/10 06:37:35;;;;;;;;;;;;;;;;;;6324161;28;20332;-89
2023/10/10 06:40:41;;;;;;;;;;;;;;;;;;6298280;28;19912;-89
2023/10/10 06:43:42;;;;;;;;;;;;;;;;;;6320748;28;20729;-89
2023/10/10 06:46:42;;;;;;;;;;;;;;;;;;6320300;28;19908;-89
2023/10/10 06:49:54;;;;;;;;;;;;;;;;;;6336220;28;19923;-89
2023/10/10 06:52:55;;;;;;;;;;;;;;;;;;6316251;28;19914;-89
2023/10/10 06:55:55;;;;;;;;;;;;;;;;;;6331150;28;19916;-90
2023/10/10 06:58:56;;;;;;;;;;;;;;;;;;6335053;27;20010;-81
2023/10/10 07:02:00;;;;;;;;;;;;;;;;;;6332425;27;20293;-82
2023/10/10 07:05:00;;;;;;;;;;;;;;;;;;6314935;28;19954;-82
2023/10/10 07:08:12;;;;;;;;;;;;;;;;;;6314034;28;19916;-81
2023/10/10 07:11:20;;;;;;;;;;;;;;;;;;6325800;28;19919;-84
2023/10/10 07:14:20;;;;;;;;;;;;;;;;;;6328662;28;19916;-83
2023/10/10 07:17:27;;;;;;;;;;;;;;;;;;6330144;28;19915;-82
2023/10/10 07:21:04;;;;;;;;;;;;;;;;;;6311603;28;19969;-82
2023/10/10 07:24:02;;;;;;;;;;;;;;;;;;6325199;28;19908;-82
2023/10/10 07:27:11;;;;;;;;;;;;;;;;;;6342380;27;19915;-82
2023/10/10 07:30:18;;;;;;;;;;;;;;;;;;6318524;28;19908;-82
2023/10/10 07:33:23;;;;;;;;;;;;;;;;;;6322628;28;19988;-82
2023/10/10 07:36:27;;;;;;;;;;;;;;;;;;6320238;28;19920;-82
2023/10/10 07:39:32;;;;;;;;;;;;;;;;;;6320662;28;19912;-82
2023/10/10 07:42:35;;;;;;;;;;;;;;;;;;6325396;28;20035;-82
2023/10/10 07:45:43;;;;;;;;;;;;;;;;;;6324803;28;20350;-81
2023/10/10 07:48:46;;;;;;;;;;;;;;;;;;6310855;28;19916;-82
2023/10/10 07:51:49;;;;;;;;;;;;;;;;;;6317605;28;19991;-83
2023/10/10 07:55:04;;;;;;;;;;;;;;;;;;6331162;28;20002;-81
2023/10/10 07:58:06;;;;;;;;;;;;;;;;;;6315216;28;19967;-83
2023/10/10 08:01:09;;;;;;;;;;;;;;;;;;6333522;28;19907;-82
2023/10/10 08:04:12;;;;;;;;;;;;;;;;;;6317200;28;20002;-82
2023/10/10 08:07:18;;;;;;;;;;;;;;;;;;6301122;28;20353;-89
2023/10/10 08:10:39;;;;;;;;;;;;;;;;;;6335327;28;19912;-89
2023/10/10 08:13:38;;;;;;;;;;;;;;;;;;6325879;28;19915;-89
2023/10/10 08:16:39;;;;;;;;;;;;;;;;;;6331704;28;19927;-89
2023/10/10 08:19:43;;;;;;;;;;;;;;;;;;6317405;28;19919;-89
2023/10/10 08:22:43;;;;;;;;;;;;;;;;;;6321617;28;19969;-89
2023/10/10 08:25:43;;;;;;;;;;;;;;;;;;6330013;27;20001;-89
2023/10/10 08:28:43;;;;;;;;;;;;;;;;;;6317706;28;19912;-89
2023/10/10 08:31:43;;;;;;;;;;;;;;;;;;6316960;28;20327;-89
2023/10/10 08:34:43;;;;;;;;;;;;;;;;;;6334492;28;20423;-89
2023/10/10 08:37:44;;;;;;;;;;;;;;;;;;6318197;28;19912;-82
2023/10/10 08:40:44;;;;;;;;;;;;;;;;;;6336212;28;19919;-83
2023/10/10 08:43:45;;;;;;;;;;;;;;;;;;6315273;28;20340;-83
2023/10/10 08:46:46;;;;;;;;;;;;;;;;;;6335467;28;20355;-82
2023/10/10 08:49:47;;;;;;;;;;;;;;;;;;6315182;28;19937;-83
2023/10/10 08:52:47;;;;;;;;;;;;;;;;;;6324596;28;19957;-82
2023/10/10 08:55:56;;;;;;;;;;;;;;;;;;6312766;28;19908;-83
2023/10/10 08:58:57;;;;;;;;;;;;;;;;;;6307127;28;20381;-82
2023/10/10 09:01:57;;;;;;;;;;;;;;;;;;6332132;27;19912;-82
2023/10/10 09:04:58;;;;;;;;;;;;;;;;;;6327193;28;20385;-82
2023/10/10 09:08:06;;;;;;;;;;;;;;;;;;6325128;28;19908;-82
2023/10/10 09:11:09;;;;;;;;;;;;;;;;;;6315855;28;19915;-82
2023/10/10 09:14:10;;;;;;;;;;;;;;;;;;6346192;28;20639;-82
2023/10/10 09:17:10;;;;;;;;;;;;;;;;;;6313855;28;19918;-83
2023/10/10 09:20:22;;;;;;;;;;;;;;;;;;6330144;28;19926;-82
2023/10/10 09:23:23;;;;;;;;;;;;;;;;;;6321330;28;19969;-82
2023/10/10 09:29:26;;;;;;;;;;;;;;;;;;6332186;28;20650;-82
2023/10/10 09:32:30;;;;;;;;;;;;;;;;;;6338555;28;19911;-82
2023/10/10 09:35:30;;;;;;;;;;;;;;;;;;6326922;28;19923;-82
2023/10/10 09:38:54;;;;;;;;;;;;;;;;;;6314099;28;19912;-82
2023/10/10 09:45:18;;;;;;;;;;;;;;;;;;6327588;28;19916;-81
2023/10/10 09:48:28;;;;;;;;;;;;;;;;;;6336163;28;19947;-89
2023/10/10 09:54:48;;;;;;;;;;;;;;;;;;6295567;28;19916;-90
2023/10/10 10:01:04;;;;;;;;;;;;;;;;;;6338113;28;19915;-90
2023/10/10 10:04:04;;;;;;;;;;;;;;;;;;6331126;28;19912;-91
2023/10/10 10:07:12;;;;;;;;;;;;;;;;;;6318072;28;19947;-90
2023/10/10 10:10:12;;;;;;;;;;;;;;;;;;6314330;28;20011;-90
2023/10/10 10:13:13;;;;;;;;;;;;;;;;;;6327221;28;19915;-90
2023/10/10 10:16:19;;;;;;;;;;;;;;;;;;6322829;28;19914;-90
2023/10/10 10:19:19;;;;;;;;;;;;;;;;;;6328761;28;20370;-90
2023/10/10 10:22:21;;;;;;;;;;;;;;;;;;6337513;28;19919;-90
2023/10/10 10:25:22;;;;;;;;;;;;;;;;;;6335062;27;20361;-90
2023/10/10 10:28:28;;;;;;;;;;;;;;;;;;6348649;27;19951;-90
2023/10/10 10:31:28;;;;;;;;;;;;;;;;;;6325058;28;19912;-90
2023/10/10 10:34:31;;;;;;;;;;;;;;;;;;6318064;28;19912;-90
2023/10/10 10:37:31;;;;;;;;;;;;;;;;;;6317746;28;19912;-89
2023/10/10 10:43:42;;;;;;;;;;;;;;;;;;6345916;27;19922;-90
2023/10/10 10:46:47;;;;;;;;;;;;;;;;;;6317199;28;19911;-89
2023/10/10 10:49:48;;;;;;;;;;;;;;;;;;6332403;28;19912;-89
2023/10/10 10:52:48;;;;;;;;;;;;;;;;;;6313248;28;19942;-89
2023/10/10 10:56:06;;;;;;;;;;;;;;;;;;6336042;27;20277;-89
2023/10/10 10:59:12;;;;;;;;;;;;;;;;;;6345603;28;20014;-81
2023/10/10 11:02:16;;;;;;;;;;;;;;;;;;6338804;27;19915;-82
2023/10/10 11:05:16;;;;;;;;;;;;;;;;;;6337789;28;19912;-82
2023/10/10 11:08:37;;;;;;;;;;;;;;;;;;6326221;28;19916;-83
2023/10/10 11:11:40;;;;;;;;;;;;;;;;;;6342246;27;20018;-82
2023/10/10 11:14:46;;;;;;;;;;;;;;;;;;6301283;28;19919;-83
2023/10/10 11:17:46;;;;;;;;;;;;;;;;;;6311605;28;19919;-81
2023/10/10 11:21:06;;;;;;;;;;;;;;;;;;6320356;28;19908;-82
2023/10/10 11:24:06;;;;;;;;;;;;;;;;;;6305717;28;19912;-81
2023/10/10 11:27:13;;;;;;;;;;;;;;;;;;6331814;27;19912;-82
2023/10/10 11:30:19;;;;;;;;;;;;;;;;;;6329862;28;19955;-82
2023/10/10 11:33:20;;;;;;;;;;;;;;;;;;6333667;28;19927;-81
2023/10/10 11:36:20;;;;;;;;;;;;;;;;;;6337166;28;20586;-89
2023/10/10 11:39:20;;;;;;;;;;;;;;;;;;6328857;28;19962;-81
2023/10/10 11:42:20;;;;;;;;;;;;;;;;;;6333776;28;20335;-82
2023/10/10 11:45:26;;;;;;;;;;;;;;;;;;6319014;28;20297;-81
2023/10/10 11:48:26;;;;;;;;;;;;;;;;;;6318392;28;20053;-82
2023/10/10 11:51:30;;;;;;;;;;;;;;;;;;6334659;28;19912;-82
2023/10/10 11:54:32;;;;;;;;;;;;;;;;;;6327581;28;19920;-82
2023/10/10 11:57:34;;;;;;;;;;;;;;;;;;6332930;27;19919;-82
2023/10/10 12:00:43;;;;;;;;;;;;;;;;;;6313772;28;19916;-81
2023/10/10 12:03:43;;;;;;;;;;;;;;;;;;6310693;28;19979;-82
2023/10/10 12:06:43;;;;;;;;;;;;;;;;;;6325983;28;19984;-82
2023/10/10 12:09:45;;;;;;;;;;;;;;;;;;6335868;28;19916;-81
2023/10/10 12:12:46;;;;;;;;;;;;;;;;;;6306449;28;19912;-82
2023/10/10 12:15:46;;;;;;;;;;;;;;;;;;6329561;28;19920;-82
2023/10/10 12:18:49;;;;;;;;;;;;;;;;;;6342848;27;19919;-82
2023/10/10 12:21:51;;;;;;;;;;;;;;;;;;6315959;28;19908;-81
2023/10/10 12:24:52;;;;;;;;;;;;;;;;;;6324572;28;19912;-82
2023/10/10 12:27:59;;;;;;;;;;;;;;;;;;6338555;27;19947;-81
2023/10/10 12:31:03;;;;;;;;;;;;;;;;;;6317280;28;19915;-83
2023/10/10 12:34:06;;;;;;;;;;;;;;;;;;6317247;28;20015;-84
2023/10/10 12:37:06;;;;;;;;;;;;;;;;;;6305647;28;19959;-81
2023/10/10 12:40:08;;;;;;;;;;;;;;;;;;6319630;28;19993;-83
2023/10/10 12:43:11;;;;;;;;;;;;;;;;;;6321040;28;19907;-82
2023/10/10 12:46:16;;;;;;;;;;;;;;;;;;6328550;28;19919;-81
2023/10/10 12:49:17;;;;;;;;;;;;;;;;;;6342081;27;19922;-83
2023/10/10 12:52:17;;;;;;;;;;;;;;;;;;6315917;27;19923;-83
2023/10/10 12:55:18;;;;;;;;;;;;;;;;;;6341332;28;19924;-82
2023/10/10 12:58:20;;;;;;;;;;;;;;;;;;6312733;28;19931;-83
2023/10/10 13:01:23;;;;;;;;;;;;;;;;;;6342677;27;19956;-82
2023/10/10 13:04:29;;;;;;;;;;;;;;;;;;6313268;28;20360;-83
2023/10/10 13:07:34;;;;;;;;;;;;;;;;;;6337712;28;19916;-82
2023/10/10 13:10:37;;;;;;;;;;;;;;;;;;6333223;27;19918;-82
2023/10/10 13:13:45;;;;;;;;;;;;;;;;;;6323743;28;19919;-83
2023/10/10 13:19:45;;;;;;;;;;;;;;;;;;6331555;28;19964;-82
2023/10/10 13:22:50;;;;;;;;;;;;;;;;;;6337554;28;19913;-81
2023/10/10 13:25:50;;;;;;;;;;;;;;;;;;6333555;27;19918;-82
2023/10/10 13:28:50;;;;;;;;;;;;;;;;;;6317465;28;19927;-84
2023/10/10 13:31:50;;;;;;;;;;;;;;;;;;6329453;27;19919;-83
2023/10/10 13:34:52;;;;;;;;;;;;;;;;;;6317228;28;19965;-81
2023/10/10 13:37:52;;;;;;;;;;;;;;;;;;6327429;28;19951;-83
2023/10/10 13:40:52;;;;;;;;;;;;;;;;;;6320682;28;19912;-81
2023/10/10 13:43:52;;;;;;;;;;;;;;;;;;6308092;28;19912;-82
2023/10/10 13:46:52;;;;;;;;;;;;;;;;;;6334578;28;20567;-82
2023/10/10 13:50:28;;;;;;;;;;;;;;;;;;6331135;28;19920;-83
2023/10/10 13:53:13;;;;;;;;;;;;;;;;;;6334366;27;19916;-81
2023/10/10 13:56:16;;;;;;;;;;;;;;;;;;6336555;27;20422;-81
2023/10/10 13:59:17;;;;;;;;;;;;;;;;;;6340344;27;20326;-88
2023/10/10 14:02:17;;;;;;;;;;;;;;;;;;6316724;28;19912;-88
2023/10/10 14:05:19;;;;;;;;;;;;;;;;;;6308643;28;19915;-89
2023/10/10 14:08:19;;;;;;;;;;;;;;;;;;6341025;28;19960;-91
2023/10/10 14:11:23;;;;;;;;;;;;;;;;;;6323862;28;19991;-90
2023/10/10 14:14:23;;;;;;;;;;;;;;;;;;6314001;28;19927;-92
2023/10/10 14:17:23;;;;;;;;;;;;;;;;;;6314550;28;19924;-92
2023/10/10 14:20:24;;;;;;;;;;;;;;;;;;6314854;28;19919;-93
2023/10/10 14:23:25;;;;;;;;;;;;;;;;;;6332974;27;19919;-93
2023/10/10 14:26:30;;;;;;;;;;;;;;;;;;6328615;28;19908;-85
2023/10/10 14:29:41;;;;;;;;;;;;;;;;;;6314484;27;19927;-83
2023/10/10 14:32:41;;;;;;;;;;;;;;;;;;6303451;28;19912;-84
2023/10/10 14:35:41;;;;;;;;;;;;;;;;;;6303167;28;20004;-84
2023/10/10 14:38:49;;;;;;;;;;;;;;;;;;6323078;28;19916;-83
2023/10/10 14:41:49;;;;;;;;;;;;;;;;;;6317914;28;19912;-83
2023/10/10 14:44:50;;;;;;;;;;;;;;;;;;6316969;28;19922;-84
2023/10/10 14:47:51;;;;;;;;;;;;;;;;;;6325158;28;19916;-83
2023/10/10 14:50:54;;;;;;;;;;;;;;;;;;6309038;28;20007;-83
2023/10/10 14:53:55;;;;;;;;;;;;;;;;;;6308925;28;20399;-83
2023/10/10 14:56:55;;;;;;;;;;;;;;;;;;6310078;28;19961;-83
2023/10/10 14:59:55;;;;;;;;;;;;;;;;;;6305668;27;19927;-84
2023/10/10 15:02:56;;;;;;;;;;;;;;;;;;6327619;27;21139;-84
2023/10/10 15:05:57;;;;;;;;;;;;;;;;;;6337790;28;20032;-83
2023/10/10 15:08:58;;;;;;;;;;;;;;;;;;6332055;28;20383;-82
2023/10/10 15:11:58;;;;;;;;;;;;;;;;;;6311882;28;20010;-82
2023/10/10 15:15:00;;;;;;;;;;;;;;;;;;6334018;28;19927;-82
2023/10/10 15:18:00;;;;;;;;;;;;;;;;;;6326745;28;19920;-82
2023/10/10 15:21:01;;;;;;;;;;;;;;;;;;6324756;28;19916;-82
2023/10/10 15:24:01;;;;;;;;;;;;;;;;;;6314680;28;19916;-82
2023/10/10 15:27:01;;;;;;;;;;;;;;;;;;6335611;28;19938;-82
2023/10/10 15:30:08;;;;;;;;;;;;;;;;;;6331433;28;19912;-82
2023/10/10 15:33:10;;;;;;;;;;;;;;;;;;6324790;28;19926;-81
2023/10/10 15:36:11;;;;;;;;;;;;;;;;;;6325272;28;19916;-81
2023/10/10 15:39:11;;;;;;;;;;;;;;;;;;6328102;28;20006;-82
2023/10/10 15:42:11;;;;;;;;;;;;;;;;;;6325776;28;19920;-82
2023/10/10 15:45:19;;;;;;;;;;;;;;;;;;6335187;27;19938;-82
2023/10/10 15:48:23;;;;;;;;;;;;;;;;;;6330741;28;19916;-83
2023/10/10 15:51:23;;;;;;;;;;;;;;;;;;6322648;28;19920;-82
2023/10/10 15:54:29;;;;;;;;;;;;;;;;;;6329915;28;19924;-84
2023/10/10 15:57:29;;;;;;;;;;;;;;;;;;6326983;28;20283;-83
2023/10/10 16:00:32;;;;;;;;;;;;;;;;;;6284913;28;20069;-83
2023/10/10 16:03:32;;;;;;;;;;;;;;;;;;6289764;28;19950;-83
2023/10/10 16:06:35;;;;;;;;;;;;;;;;;;6293349;28;20446;-83
2023/10/10 16:09:35;;;;;;;;;;;;;;;;;;6298509;28;20378;-83
2023/10/10 16:12:35;;;;;;;;;;;;;;;;;;6284425;28;19909;-83
2023/10/10 16:15:36;;;;;;;;;;;;;;;;;;6307405;28;20018;-83
2023/10/10 16:18:36;;;;;;;;;;;;;;;;;;6297736;28;19920;-92
2023/10/10 16:21:38;;;;;;;;;;;;;;;;;;6286682;28;19956;-92
2023/10/10 16:24:39;;;;;;;;;;;;;;;;;;6302209;28;19919;-92
2023/10/10 16:27:39;;;;;;;;;;;;;;;;;;6310880;28;20290;-92
2023/10/10 16:30:39;;;;;;;;;;;;;;;;;;6313197;28;19968;-93
2023/10/10 16:33:40;;;;;;;;;;;;;;;;;;6303918;28;19916;-93
2023/10/10 16:36:40;;;;;;;;;;;;;;;;;;6321835;28;19912;-93
2023/10/10 16:39:44;;;;;;;;;;;;;;;;;;6309411;28;19915;-93
2023/10/10 16:42:45;;;;;;;;;;;;;;;;;;6313554;28;20311;-93
2023/10/10 16:45:49;;;;;;;;;;;;;;;;;;6295733;28;19999;-93
2023/10/10 16:48:49;;;;;;;;;;;;;;;;;;6293280;28;19949;-83
2023/10/10 16:51:49;;;;;;;;;;;;;;;;;;6303562;28;19991;-83
2023/10/10 16:54:53;;;;;;;;;;;;;;;;;;6304131;28;19916;-83
2023/10/10 16:57:54;;;;;;;;;;;;;;;;;;6309251;28;19997;-84
2023/10/10 17:00:54;;;;;;;;;;;;;;;;;;6334868;27;20235;-84
2023/10/10 17:03:54;;;;;;;;;;;;;;;;;;6336642;28;19962;-83
2023/10/10 17:06:54;;;;;;;;;;;;;;;;;;6324303;28;19912;-84
2023/10/10 17:09:54;;;;;;;;;;;;;;;;;;6310040;28;19918;-84
2023/10/10 17:12:56;;;;;;;;;;;;;;;;;;6336677;28;19960;-83
2023/10/10 17:15:56;;;;;;;;;;;;;;;;;;6332596;27;20289;-83
2023/10/10 17:18:56;;;;;;;;;;;;;;;;;;6313123;28;19958;-83
2023/10/10 17:21:58;;;;;;;;;;;;;;;;;;6344703;27;20273;-84
2023/10/10 17:24:59;;;;;;;;;;;;;;;;;;6329599;27;19916;-84
2023/10/10 17:27:59;;;;;;;;;;;;;;;;;;6336216;27;19919;-84
2023/10/10 17:30:59;;;;;;;;;;;;;;;;;;6313603;28;19912;-84
2023/10/10 17:34:01;;;;;;;;;;;;;;;;;;6322673;28;19920;-84
2023/10/10 17:37:02;;;;;;;;;;;;;;;;;;6312276;27;19912;-83
2023/10/10 17:40:05;;;;;;;;;;;;;;;;;;6322133;28;19919;-84
2023/10/10 17:43:09;;;;;;;;;;;;;;;;;;6313493;28;20018;-83
2023/10/10 17:46:09;;;;;;;;;;;;;;;;;;6317403;28;20226;-83
2023/10/10 17:49:09;;;;;;;;;;;;;;;;;;6323182;28;20093;-83
2023/10/10 17:52:09;;;;;;;;;;;;;;;;;;6331367;28;20340;-83
2023/10/10 17:55:10;;;;;;;;;;;;;;;;;;6328364;27;19950;-84
2023/10/10 17:58:16;;;;;;;;;;;;;;;;;;6308495;28;19924;-93
2023/10/10 18:01:19;;;;;;;;;;;;;;;;;;6339689;27;19955;-92
2023/10/10 18:04:20;;;;;;;;;;;;;;;;;;6329958;28;20329;-91
2023/10/10 18:07:23;;;;;;;;;;;;;;;;;;6335888;27;19998;-92
2023/10/10 18:10:23;;;;;;;;;;;;;;;;;;6307720;28;19974;-93
2023/10/10 18:13:23;;;;;;;;;;;;;;;;;;6315552;28;19912;-92
2023/10/10 18:16:23;;;;;;;;;;;;;;;;;;6331480;28;19916;-92
2023/10/10 18:19:26;;;;;;;;;;;;;;;;;;6331376;28;19951;-93
2023/10/10 18:22:26;;;;;;;;;;;;;;;;;;6332140;28;19919;-93
2023/10/10 18:25:26;;;;;;;;;;;;;;;;;;6339151;27;19951;-93
2023/10/10 18:28:28;;;;;;;;;;;;;;;;;;6351396;27;19955;-92
2023/10/10 18:31:33;;;;;;;;;;;;;;;;;;6366638;27;19923;-93
2023/10/10 18:34:41;;;;;;;;;;;;;;;;;;6360671;27;19933;-92
2023/10/10 18:37:41;;;;;;;;;;;;;;;;;;6363358;27;19911;-92
2023/10/10 18:40:41;;;;;;;;;;;;;;;;;;6367776;27;19896;-93
2023/10/10 18:43:41;;;;;;;;;;;;;;;;;;6358740;27;19922;-92
2023/10/10 18:46:43;;;;;;;;;;;;;;;;;;6359546;27;19996;-91
2023/10/10 18:49:43;;;;;;;;;;;;;;;;;;6363345;28;19916;-91
2023/10/10 18:52:44;;;;;;;;;;;;;;;;;;6339111;27;19971;-91
2023/10/10 18:55:49;;;;;;;;;;;;;;;;;;6357354;27;19924;-90
2023/10/10 18:58:50;;;;;;;;;;;;;;;;;;6365484;27;19926;-91
2023/10/10 19:01:51;;;;;;;;;;;;;;;;;;6369404;27;19963;-91
2023/10/10 19:04:51;;;;;;;;;;;;;;;;;;6341073;27;19932;-92
2023/10/10 19:07:51;;;;;;;;;;;;;;;;;;6360716;28;19916;-92
2023/10/10 19:10:51;;;;;;;;;;;;;;;;;;6331762;28;19912;-91
2023/10/10 19:13:51;;;;;;;;;;;;;;;;;;6343999;28;19925;-89
2023/10/10 19:16:53;;;;;;;;;;;;;;;;;;6358575;28;19916;-91
2023/10/10 19:19:53;;;;;;;;;;;;;;;;;;6335626;28;20254;-91
2023/10/10 19:22:54;;;;;;;;;;;;;;;;;;6329160;28;19916;-91
2023/10/10 19:25:55;;;;;;;;;;;;;;;;;;6326143;28;19912;-91
2023/10/10 19:28:57;;;;;;;;;;;;;;;;;;6313698;28;19912;-92
2023/10/10 19:31:59;;;;;;;;;;;;;;;;;;6327939;28;20283;-92
2023/10/10 19:35:00;;;;;;;;;;;;;;;;;;6327571;28;20325;-92
2023/10/10 19:38:00;;;;;;;;;;;;;;;;;;6312688;28;19973;-92
2023/10/10 19:41:04;;;;;;;;;;;;;;;;;;6326528;28;19939;-92
2023/10/10 19:44:06;;;;;;;;;;;;;;;;;;6328650;28;19912;-92
2023/10/10 19:47:10;;;;;;;;;;;;;;;;;;6309973;28;19969;-91
2023/10/10 19:50:10;;;;;;;;;;;;;;;;;;6337730;28;20360;-91
2023/10/10 19:53:10;;;;;;;;;;;;;;;;;;6329908;27;20234;-92
2023/10/10 19:56:21;;;;;;;;;;;;;;;;;;6319531;28;19908;-92
2023/10/10 19:59:21;;;;;;;;;;;;;;;;;;6324494;28;19926;-91
2023/10/10 20:02:21;;;;;;;;;;;;;;;;;;6312281;28;19919;-92
2023/10/10 20:05:21;;;;;;;;;;;;;;;;;;6339848;28;19915;-91
2023/10/10 20:08:21;;;;;;;;;;;;;;;;;;6312028;28;19912;-92
2023/10/10 20:11:21;;;;;;;;;;;;;;;;;;6324377;28;19962;-91
2023/10/10 20:14:22;;;;;;;;;;;;;;;;;;6322145;28;19948;-91
2023/10/10 20:17:23;;;;;;;;;;;;;;;;;;6329829;28;19916;-82
2023/10/10 20:20:25;;;;;;;;;;;;;;;;;;6334031;28;19994;-82
2023/10/10 20:23:26;;;;;;;;;;;;;;;;;;6344131;28;19912;-81
2023/10/10 20:26:26;;;;;;;;;;;;;;;;;;6309049;28;20347;-81
2023/10/10 20:29:26;;;;;;;;;;;;;;;;;;6324545;28;19958;-82
2023/10/10 20:32:28;;;;;;;;;;;;;;;;;;6330213;28;19935;-82
2023/10/10 20:35:31;;;;;;;;;;;;;;;;;;6313057;28;19982;-82
2023/10/10 20:38:31;;;;;;;;;;;;;;;;;;6322136;28;19916;-81
2023/10/10 20:41:32;;;;;;;;;;;;;;;;;;6328624;28;19969;-82
2023/10/10 20:44:32;;;;;;;;;;;;;;;;;;6332275;28;19912;-82
2023/10/10 20:47:32;;;;;;;;;;;;;;;;;;6313976;28;19909;-84
2023/10/10 20:50:32;;;;;;;;;;;;;;;;;;6321762;28;19961;-81
2023/10/10 20:53:33;;;;;;;;;;;;;;;;;;6318604;27;20003;-81
2023/10/10 20:56:33;;;;;;;;;;;;;;;;;;6321351;28;20007;-91
2023/10/10 20:59:33;;;;;;;;;;;;;;;;;;6316739;28;19922;-90
2023/10/10 21:02:37;;;;;;;;;;;;;;;;;;6321615;28;19916;-91
2023/10/10 21:05:38;;;;;;;;;;;;;;;;;;6319492;28;19911;-91
2023/10/10 21:08:39;;;;;;;;;;;;;;;;;;6342536;28;19961;-91
2023/10/10 21:11:39;;;;;;;;;;;;;;;;;;6310898;28;19908;-91
2023/10/10 21:14:40;;;;;;;;;;;;;;;;;;6336453;27;20011;-91
2023/10/10 21:17:41;;;;;;;;;;;;;;;;;;6336861;28;19912;-91
2023/10/10 21:20:41;;;;;;;;;;;;;;;;;;6316571;28;19916;-91
2023/10/10 21:23:42;;;;;;;;;;;;;;;;;;6339577;27;19961;-91
2023/10/10 21:26:42;;;;;;;;;;;;;;;;;;6311983;28;19912;-82
2023/10/10 21:29:42;;;;;;;;;;;;;;;;;;6311260;28;19947;-82
2023/10/10 21:32:43;;;;;;;;;;;;;;;;;;6342127;28;19920;-82
2023/10/10 21:35:44;;;;;;;;;;;;;;;;;;6307282;28;19920;-82
2023/10/10 21:38:44;;;;;;;;;;;;;;;;;;6327395;28;19919;-82
2023/10/10 21:41:44;;;;;;;;;;;;;;;;;;6307568;28;20355;-82
2023/10/10 21:44:45;;;;;;;;;;;;;;;;;;6315110;28;20412;-83
2023/10/10 21:47:46;;;;;;;;;;;;;;;;;;6330875;28;19920;-82
2023/10/10 21:50:47;;;;;;;;;;;;;;;;;;6328452;28;20006;-82
2023/10/10 21:53:47;;;;;;;;;;;;;;;;;;6339359;27;19924;-82
2023/10/10 21:56:47;;;;;;;;;;;;;;;;;;6318003;28;19961;-81
2023/10/10 21:59:49;;;;;;;;;;;;;;;;;;6325023;28;20344;-82
2023/10/10 22:02:50;;;;;;;;;;;;;;;;;;6338045;27;19912;-82
2023/10/10 22:05:50;;;;;;;;;;;;;;;;;;6312342;28;19946;-82
2023/10/10 22:08:51;;;;;;;;;;;;;;;;;;6326510;28;19930;-90
2023/10/10 22:11:51;;;;;;;;;;;;;;;;;;6319209;28;20357;-90
2023/10/10 22:14:52;;;;;;;;;;;;;;;;;;6338846;28;19916;-90
2023/10/10 22:17:54;;;;;;;;;;;;;;;;;;6331955;28;19937;-91
2023/10/10 22:20:55;;;;;;;;;;;;;;;;;;6337667;28;19943;-91
2023/10/10 22:23:56;;;;;;;;;;;;;;;;;;6327298;28;19908;-91
2023/10/10 22:26:56;;;;;;;;;;;;;;;;;;6325726;28;19908;-91
2023/10/10 22:29:56;;;;;;;;;;;;;;;;;;6327008;27;19912;-92
2023/10/10 22:32:59;;;;;;;;;;;;;;;;;;6343819;27;20006;-91
2023/10/10 22:36:00;;;;;;;;;;;;;;;;;;6325471;28;19919;-91
2023/10/10 22:39:06;;;;;;;;;;;;;;;;;;6334381;28;19934;-83
2023/10/10 22:42:06;;;;;;;;;;;;;;;;;;6318631;28;19983;-83
2023/10/10 22:45:09;;;;;;;;;;;;;;;;;;6321506;28;19908;-83
2023/10/10 22:48:10;;;;;;;;;;;;;;;;;;6334546;28;19916;-83
2023/10/10 22:51:12;;;;;;;;;;;;;;;;;;6301509;28;19908;-83
2023/10/10 22:54:13;;;;;;;;;;;;;;;;;;6321861;27;19916;-83
2023/10/10 22:57:14;;;;;;;;;;;;;;;;;;6336475;27;19916;-83
2023/10/10 23:00:16;;;;;;;;;;;;;;;;;;6334134;28;19920;-83
2023/10/10 23:03:18;;;;;;;;;;;;;;;;;;6343168;27;19919;-83